createdAt,value
2018-03-24T00:01:24.429Z,-0.52
2018-03-24T00:03:51.066Z,0.22
2018-03-24T00:06:17.604Z,-0.21
2018-03-24T00:08:44.142Z,0.23
2018-03-24T00:11:10.947Z,-1.06
2018-03-24T00:13:37.490Z,-0.84
2018-03-24T00:16:04.510Z,0.05
2018-03-24T00:18:31.215Z,0.85
2018-03-24T00:20:57.684Z,0.67
2018-03-24T00:23:24.446Z,0.32
2018-03-24T00:25:51.154Z,-0.48
2018-03-24T00:28:17.850Z,-0.34
2018-03-24T00:30:44.922Z,-0.75
2018-03-24T00:33:11.780Z,-1.31
2018-03-24T00:35:38.368Z,-0.22
2018-03-24T00:38:05.117Z,-0.61
2018-03-24T00:40:32.116Z,-0.34
2018-03-24T00:42:59.016Z,-0.22
2018-03-24T00:45:25.759Z,-0.23
2018-03-24T00:47:52.221Z,-0.69
2018-03-24T00:50:18.862Z,-0.48
2018-03-24T00:52:45.747Z,0.50
2018-03-24T00:55:12.949Z,0.39
2018-03-24T00:57:39.742Z,-0.40
2018-03-24T01:00:06.512Z,-0.46
2018-03-24T01:02:33.306Z,-0.50
2018-03-24T01:04:59.861Z,0.31
2018-03-24T01:07:26.362Z,0.67
2018-03-24T01:09:53.012Z,-0.07
2018-03-24T01:12:19.624Z,-0.24
2018-03-24T01:14:46.005Z,-0.02
2018-03-24T01:17:12.786Z,0.52
2018-03-24T01:19:39.183Z,-0.34
2018-03-24T01:22:05.972Z,-0.71
2018-03-24T01:24:32.588Z,-0.46
2018-03-24T01:26:58.976Z,-0.09
2018-03-24T01:29:26.035Z,-1.06
2018-03-24T01:31:52.859Z,-0.67
2018-03-24T01:34:20.041Z,-0.68
2018-03-24T01:36:46.641Z,-0.71
2018-03-24T01:39:13.121Z,-0.86
2018-03-24T01:41:39.508Z,-0.32
2018-03-24T01:44:06.770Z,0.41
2018-03-24T01:46:33.727Z,0.92
2018-03-24T01:49:00.351Z,1.14
2018-03-24T01:51:26.967Z,1.13
2018-03-24T01:53:53.857Z,1.46
2018-03-24T01:56:20.405Z,1.65
2018-03-24T01:58:47.086Z,1.82
2018-03-24T02:01:13.868Z,1.42
2018-03-24T02:03:40.524Z,0.44
2018-03-24T02:06:07.152Z,1.49
2018-03-24T02:11:07.537Z,-0.06
2018-03-24T02:13:34.003Z,0.64
2018-03-24T02:16:00.676Z,1.30
2018-03-24T02:18:27.487Z,1.44
2018-03-24T02:20:55.061Z,1.18
2018-03-24T02:23:21.820Z,1.16
2018-03-24T02:25:48.470Z,1.36
2018-03-24T02:28:15.153Z,1.03
2018-03-24T02:30:41.832Z,0.23
2018-03-24T02:33:08.477Z,-0.44
2018-03-24T02:35:35.202Z,-0.67
2018-03-24T02:38:01.791Z,0.18
2018-03-24T02:40:28.742Z,-0.29
2018-03-24T02:42:55.694Z,-0.27
2018-03-24T02:45:22.726Z,0.21
2018-03-24T02:47:49.746Z,-0.20
2018-03-24T02:50:16.403Z,0.31
2018-03-24T02:52:43.393Z,0.36
2018-03-24T02:55:10.537Z,0.15
2018-03-24T02:57:37.461Z,0.43
2018-03-24T03:00:04.153Z,0.28
2018-03-24T03:02:30.891Z,0.44
2018-03-24T03:04:57.722Z,1.17
2018-03-24T03:07:24.240Z,0.12
2018-03-24T03:09:50.827Z,0.88
2018-03-24T03:12:17.769Z,0.94
2018-03-24T03:14:44.606Z,1.37
2018-03-24T03:17:11.595Z,0.83
2018-03-24T03:19:38.442Z,0.12
2018-03-24T03:22:05.515Z,-0.45
2018-03-24T03:24:32.188Z,0.93
2018-03-24T03:26:58.594Z,0.39
2018-03-24T03:29:25.080Z,-0.01
2018-03-24T03:31:52.685Z,-0.27
2018-03-24T03:34:19.892Z,0.29
2018-03-24T03:36:46.298Z,0.80
2018-03-24T03:39:13.296Z,1.14
2018-03-24T03:41:39.858Z,1.55
2018-03-24T03:44:06.532Z,-0.32
2018-03-24T03:46:33.393Z,0.16
2018-03-24T03:49:00.027Z,-0.34
2018-03-24T03:51:26.743Z,0.34
2018-03-24T03:53:53.509Z,0.21
2018-03-24T03:56:20.107Z,0.31
2018-03-24T03:58:46.691Z,-0.37
2018-03-24T04:01:13.279Z,-0.37
2018-03-24T04:03:40.567Z,0.73
2018-03-24T04:06:07.203Z,1.11
2018-03-24T04:08:34.175Z,0.52
2018-03-24T04:11:01.363Z,0.93
2018-03-24T04:13:28.116Z,1.34
2018-03-24T04:15:54.642Z,0.75
2018-03-24T04:18:21.342Z,0.37
2018-03-24T04:20:47.974Z,1.00
2018-03-24T04:23:14.803Z,0.99
2018-03-24T04:25:41.529Z,1.22
2018-03-24T04:28:09.119Z,1.29
2018-03-24T04:30:35.742Z,0.91
2018-03-24T04:33:02.975Z,1.44
2018-03-24T04:35:29.619Z,0.80
2018-03-24T04:37:56.484Z,0.46
2018-03-24T04:40:23.163Z,1.36
2018-03-24T04:42:49.851Z,1.56
2018-03-24T04:45:16.871Z,1.88
2018-03-24T04:47:44.200Z,1.90
2018-03-24T04:50:11.226Z,1.12
2018-03-24T04:52:37.679Z,0.02
2018-03-24T04:55:04.297Z,0.33
2018-03-24T04:57:30.883Z,0.16
2018-03-24T04:59:57.957Z,0.89
2018-03-24T05:02:24.365Z,1.14
2018-03-24T05:04:51.374Z,0.30
2018-03-24T05:07:17.843Z,0.01
2018-03-24T05:09:44.573Z,0.54
2018-03-24T05:12:11.662Z,0.69
2018-03-24T05:14:38.375Z,0.88
2018-03-24T05:17:05.050Z,1.33
2018-03-24T05:19:31.649Z,1.58
2018-03-24T05:21:58.519Z,1.54
2018-03-24T05:24:25.607Z,1.87
2018-03-24T05:26:52.409Z,0.14
2018-03-24T05:29:19.554Z,1.02
2018-03-24T05:31:46.513Z,-0.01
2018-03-24T05:34:13.434Z,1.11
2018-03-24T05:36:40.171Z,1.50
2018-03-24T05:39:07.266Z,1.03
2018-03-24T05:41:34.036Z,1.26
2018-03-24T05:44:00.805Z,1.37
2018-03-24T05:46:27.457Z,1.48
2018-03-24T05:48:54.642Z,1.93
2018-03-24T05:51:21.489Z,2.19
2018-03-24T05:53:48.453Z,1.22
2018-03-24T05:56:15.343Z,1.77
2018-03-24T05:58:41.794Z,1.76
2018-03-24T06:01:08.590Z,2.13
2018-03-24T06:03:35.446Z,0.89
2018-03-24T06:06:01.848Z,1.95
2018-03-24T06:08:29.008Z,0.52
2018-03-24T06:10:55.702Z,0.63
2018-03-24T06:13:22.847Z,1.82
2018-03-24T06:15:49.501Z,1.54
2018-03-24T06:18:17.130Z,2.22
2018-03-24T06:20:45.378Z,2.36
2018-03-24T06:23:11.982Z,2.38
2018-03-24T06:25:38.629Z,2.12
2018-03-24T06:28:05.099Z,2.34
2018-03-24T06:30:33.649Z,2.76
2018-03-24T06:33:00.195Z,2.91
2018-03-24T06:35:27.026Z,3.10
2018-03-24T06:37:53.512Z,3.30
2018-03-24T06:40:20.180Z,2.94
2018-03-24T06:42:47.295Z,3.05
2018-03-24T06:45:14.009Z,3.12
2018-03-24T06:47:40.619Z,3.02
2018-03-24T06:50:07.210Z,2.08
2018-03-24T06:52:33.806Z,2.27
2018-03-24T06:55:00.442Z,2.32
2018-03-24T06:57:27.457Z,2.58
2018-03-24T06:59:54.730Z,2.25
2018-03-24T07:02:21.291Z,2.68
2018-03-24T07:04:48.019Z,2.83
2018-03-24T07:07:14.412Z,2.79
2018-03-24T07:09:40.932Z,2.84
2018-03-24T07:12:07.731Z,2.82
2018-03-24T07:14:34.300Z,3.14
2018-03-24T07:17:01.022Z,2.60
2018-03-24T07:19:27.512Z,2.49
2018-03-24T07:21:54.775Z,3.02
2018-03-24T07:24:21.482Z,3.02
2018-03-24T07:26:47.970Z,2.60
2018-03-24T07:29:15.007Z,2.80
2018-03-24T07:31:41.718Z,3.10
2018-03-24T07:34:08.597Z,2.40
2018-03-24T07:36:42.096Z,2.70
2018-03-24T07:39:08.701Z,2.15
2018-03-24T07:41:36.687Z,2.89
2018-03-24T07:44:03.522Z,2.75
2018-03-24T07:46:30.071Z,2.15
2018-03-24T07:48:56.865Z,2.79
2018-03-24T07:51:23.742Z,2.81
2018-03-24T07:53:50.347Z,2.45
2018-03-24T07:56:16.880Z,2.81
2018-03-24T07:58:43.436Z,2.76
2018-03-24T08:01:10.269Z,3.06
2018-03-24T08:03:37.130Z,3.61
2018-03-24T08:06:03.850Z,3.30
2018-03-24T08:08:30.862Z,3.73
2018-03-24T08:10:57.584Z,3.88
2018-03-24T08:13:24.081Z,3.94
2018-03-24T08:15:51.159Z,3.66
2018-03-24T08:18:17.811Z,3.90
2018-03-24T08:20:44.446Z,4.27
2018-03-24T08:23:11.308Z,4.46
2018-03-24T08:25:37.822Z,4.58
2018-03-24T08:28:04.345Z,4.59
2018-03-24T08:30:31.041Z,4.56
2018-03-24T08:32:57.745Z,4.54
2018-03-24T08:35:24.136Z,4.72
2018-03-24T08:37:50.893Z,4.34
2018-03-24T08:40:17.445Z,4.48
2018-03-24T08:42:44.172Z,4.62
2018-03-24T08:45:11.086Z,4.91
2018-03-24T08:47:37.680Z,5.21
2018-03-24T08:50:04.351Z,4.92
2018-03-24T08:52:30.756Z,5.35
2018-03-24T08:54:57.576Z,5.31
2018-03-24T08:57:24.335Z,4.98
2018-03-24T08:59:51.157Z,5.14
2018-03-24T09:02:17.638Z,5.20
2018-03-24T09:04:44.133Z,4.70
2018-03-24T09:07:10.924Z,4.83
2018-03-24T09:09:37.533Z,5.14
2018-03-24T09:12:04.051Z,5.24
2018-03-24T09:14:30.606Z,4.61
2018-03-24T09:16:57.273Z,5.17
2018-03-24T09:19:23.759Z,5.14
2018-03-24T09:21:51.393Z,4.86
2018-03-24T09:24:17.827Z,4.67
2018-03-24T09:26:44.306Z,5.39
2018-03-24T09:29:10.870Z,4.49
2018-03-24T09:31:37.271Z,5.13
2018-03-24T09:34:03.823Z,5.30
2018-03-24T09:36:30.229Z,4.70
2018-03-24T09:38:56.854Z,5.20
2018-03-24T09:41:23.371Z,5.50
2018-03-24T09:43:49.741Z,5.55
2018-03-24T09:46:16.219Z,5.42
2018-03-24T09:48:42.714Z,4.91
2018-03-24T09:51:09.067Z,5.19
2018-03-24T09:53:35.488Z,5.19
2018-03-24T09:56:02.034Z,5.65
2018-03-24T09:58:28.595Z,5.02
2018-03-24T10:00:55.370Z,5.36
2018-03-24T10:03:21.759Z,5.20
2018-03-24T10:05:48.228Z,5.51
2018-03-24T10:08:14.786Z,5.01
2018-03-24T10:10:41.479Z,5.12
2018-03-24T10:13:08.149Z,5.62
2018-03-24T10:18:07.863Z,5.07
2018-03-24T10:23:54.427Z,5.31
2018-03-24T10:26:21.080Z,5.54
2018-03-24T10:28:47.727Z,5.63
2018-03-24T10:31:14.299Z,5.64
2018-03-24T10:33:47.028Z,4.98
2018-03-24T10:36:13.535Z,5.95
2018-03-24T10:38:40.215Z,4.88
2018-03-24T10:41:06.649Z,5.93
2018-03-24T10:43:41.628Z,6.07
2018-03-24T10:46:08.750Z,6.11
2018-03-24T10:48:42.304Z,5.27
2018-03-24T10:51:08.793Z,5.93
2018-03-24T10:53:35.275Z,6.15
2018-03-24T10:56:01.963Z,5.94
2018-03-24T10:58:28.483Z,6.09
2018-03-24T11:01:01.053Z,5.50
2018-03-24T11:03:27.936Z,5.84
2018-03-24T11:05:54.556Z,5.00
2018-03-24T11:08:21.074Z,5.74
2018-03-24T11:10:47.474Z,6.15
2018-03-24T11:13:14.093Z,6.45
2018-03-24T11:15:40.542Z,5.76
2018-03-24T11:18:07.070Z,5.55
2018-03-24T11:20:33.527Z,5.92
2018-03-24T11:22:59.902Z,6.05
2018-03-24T11:25:28.543Z,5.95
2018-03-24T11:27:55.241Z,6.01
2018-03-24T11:30:22.534Z,6.45
2018-03-24T11:32:49.084Z,6.30
2018-03-24T11:35:15.498Z,5.93
2018-03-24T11:37:42.266Z,6.24
2018-03-24T11:40:08.812Z,5.94
2018-03-24T11:42:35.249Z,5.75
2018-03-24T11:45:01.956Z,5.49
2018-03-24T11:47:28.908Z,5.89
2018-03-24T11:49:55.638Z,6.04
2018-03-24T11:52:22.107Z,5.76
2018-03-24T11:54:49.217Z,5.16
2018-03-24T11:57:15.758Z,5.47
2018-03-24T11:59:42.250Z,5.20
2018-03-24T12:02:08.691Z,5.77
2018-03-24T12:04:35.329Z,5.53
2018-03-24T12:07:01.774Z,4.57
2018-03-24T12:09:28.255Z,5.72
2018-03-24T12:11:54.839Z,5.69
2018-03-24T12:14:21.349Z,6.13
2018-03-24T12:16:47.773Z,5.63
2018-03-24T12:19:14.408Z,6.03
2018-03-24T12:21:41.092Z,6.43
2018-03-24T12:24:07.919Z,6.63
2018-03-24T12:26:34.493Z,6.52
2018-03-24T12:29:01.037Z,6.42
2018-03-24T12:31:27.786Z,6.20
2018-03-24T12:33:54.209Z,6.46
2018-03-24T12:36:20.904Z,6.44
2018-03-24T12:38:47.418Z,6.56
2018-03-24T12:41:13.841Z,6.64
2018-03-24T12:43:40.215Z,6.13
2018-03-24T12:46:06.912Z,6.17
2018-03-24T12:48:33.440Z,6.47
2018-03-24T12:50:59.973Z,6.56
2018-03-24T12:53:26.381Z,6.62
2018-03-24T12:55:52.859Z,6.60
2018-03-24T12:58:26.429Z,6.04
2018-03-24T13:00:53.179Z,5.93
2018-03-24T13:03:19.762Z,6.29
2018-03-24T13:05:46.349Z,6.26
2018-03-24T13:08:12.974Z,6.40
2018-03-24T13:10:39.365Z,5.80
2018-03-24T13:13:05.750Z,5.92
2018-03-24T13:15:32.855Z,6.24
2018-03-24T13:17:59.290Z,6.30
2018-03-24T13:20:25.692Z,6.48
2018-03-24T13:22:52.131Z,6.47
2018-03-24T13:25:18.674Z,6.47
2018-03-24T13:27:45.173Z,6.14
2018-03-24T13:30:11.794Z,6.18
2018-03-24T13:32:45.566Z,6.10
2018-03-24T13:35:12.141Z,6.16
2018-03-24T13:37:38.605Z,6.02
2018-03-24T13:40:05.071Z,6.01
2018-03-24T13:42:31.637Z,6.11
2018-03-24T13:44:58.098Z,6.10
2018-03-24T13:47:24.709Z,5.99
2018-03-24T13:49:51.449Z,6.04
2018-03-24T13:52:18.054Z,5.93
2018-03-24T13:54:44.698Z,5.98
2018-03-24T13:57:11.305Z,5.96
2018-03-24T13:59:37.748Z,5.93
2018-03-24T14:02:04.343Z,6.08
2018-03-24T14:04:30.921Z,6.22
2018-03-24T14:06:57.586Z,6.15
2018-03-24T14:09:24.455Z,5.63
2018-03-24T14:11:51.146Z,5.71
2018-03-24T14:14:17.582Z,5.53
2018-03-24T14:16:44.285Z,5.50
2018-03-24T14:19:11.031Z,5.26
2018-03-24T14:21:37.741Z,5.39
2018-03-24T14:24:04.338Z,5.45
2018-03-24T14:26:30.810Z,5.51
2018-03-24T14:28:57.226Z,5.38
2018-03-24T14:31:23.874Z,5.41
2018-03-24T14:33:50.659Z,5.57
2018-03-24T14:36:17.201Z,5.20
2018-03-24T14:38:43.689Z,5.36
2018-03-24T14:41:10.290Z,5.23
2018-03-24T14:43:36.758Z,5.46
2018-03-24T14:46:03.242Z,5.51
2018-03-24T14:48:29.697Z,5.41
2018-03-24T14:50:56.093Z,5.32
2018-03-24T14:53:22.877Z,5.49
2018-03-24T14:55:49.563Z,5.32
2018-03-24T14:58:16.161Z,5.27
2018-03-24T15:00:43.007Z,5.25
2018-03-24T15:03:09.506Z,4.76
2018-03-24T15:05:36.110Z,4.90
2018-03-24T15:08:02.790Z,5.01
2018-03-24T15:10:29.146Z,5.13
2018-03-24T15:12:55.593Z,5.16
2018-03-24T15:15:22.124Z,5.15
2018-03-24T15:17:48.754Z,5.15
2018-03-24T15:20:15.464Z,4.97
2018-03-24T15:22:42.096Z,5.15
2018-03-24T15:25:08.488Z,5.15
2018-03-24T15:27:34.925Z,5.15
2018-03-24T15:30:13.863Z,5.29
2018-03-24T15:32:52.172Z,5.11
2018-03-24T15:35:32.706Z,5.02
2018-03-24T15:37:59.405Z,5.13
2018-03-24T15:40:25.987Z,5.06
2018-03-24T15:42:52.483Z,5.12
2018-03-24T15:45:18.982Z,5.10
2018-03-24T15:47:45.844Z,5.22
2018-03-24T15:50:12.394Z,5.15
2018-03-24T15:52:38.965Z,5.18
2018-03-24T15:55:05.383Z,5.24
2018-03-24T15:57:31.970Z,5.24
2018-03-24T15:59:58.396Z,5.19
2018-03-24T16:02:24.899Z,4.89
2018-03-24T16:04:51.405Z,4.76
2018-03-24T16:07:17.880Z,5.04
2018-03-24T16:09:44.638Z,5.21
2018-03-24T16:12:11.253Z,4.88
2018-03-24T16:14:37.881Z,5.00
2018-03-24T16:25:44.978Z,4.76
2018-03-24T16:28:11.444Z,4.69
2018-03-24T16:30:37.874Z,4.90
2018-03-24T16:33:04.836Z,4.98
2018-03-24T16:35:31.476Z,4.96
2018-03-24T16:37:58.205Z,5.04
2018-03-24T16:40:25.075Z,4.92
2018-03-24T16:42:52.155Z,5.03
2018-03-24T16:45:19.126Z,4.92
2018-03-24T16:47:45.990Z,5.00
2018-03-24T16:50:13.327Z,5.10
2018-03-24T16:52:40.274Z,5.11
2018-03-24T16:55:06.846Z,5.09
2018-03-24T16:57:33.863Z,5.08
2018-03-24T17:00:04.272Z,5.09
2018-03-24T17:02:31.460Z,5.06
2018-03-24T17:04:58.073Z,4.90
2018-03-24T17:07:24.819Z,4.91
2018-03-24T17:09:51.417Z,4.96
2018-03-24T17:12:23.599Z,4.95
2018-03-24T17:14:50.292Z,5.00
2018-03-24T17:17:18.105Z,4.94
2018-03-24T17:19:45.344Z,5.03
2018-03-24T17:22:15.112Z,4.91
2018-03-24T17:24:42.362Z,4.92
2018-03-24T17:27:09.506Z,4.91
2018-03-24T17:29:36.048Z,4.92
2018-03-24T17:32:03.116Z,4.77
2018-03-24T17:34:30.171Z,4.80
2018-03-24T17:36:58.301Z,4.86
2018-03-24T17:39:26.857Z,4.81
2018-03-24T17:41:54.589Z,4.71
2018-03-24T17:44:21.099Z,4.85
2018-03-24T17:46:48.022Z,4.83
2018-03-24T17:49:16.590Z,4.78
2018-03-24T17:51:45.165Z,4.79
2018-03-24T17:54:12.080Z,4.84
2018-03-24T17:56:38.528Z,4.22
2018-03-24T17:59:05.729Z,4.88
2018-03-24T18:01:32.769Z,5.08
2018-03-24T18:03:59.499Z,5.20
2018-03-24T18:06:26.385Z,5.37
2018-03-24T18:08:53.795Z,5.40
2018-03-24T18:11:20.324Z,5.37
2018-03-24T18:13:47.387Z,5.22
2018-03-24T18:16:14.136Z,4.95
2018-03-24T18:18:40.723Z,5.08
2018-03-24T18:21:08.704Z,5.01
2018-03-24T18:23:36.526Z,5.16
2018-03-24T18:26:03.332Z,5.08
2018-03-24T18:28:30.358Z,5.18
2018-03-24T18:30:57.262Z,5.23
2018-03-24T18:33:24.139Z,5.11
2018-03-24T18:35:51.258Z,5.14
2018-03-24T18:38:18.347Z,5.25
2018-03-24T18:40:46.762Z,5.24
2018-03-24T18:43:13.428Z,5.15
2018-03-24T18:45:40.815Z,5.12
2018-03-24T18:48:07.332Z,5.12
2018-03-24T18:50:34.027Z,5.24
2018-03-24T18:53:00.667Z,5.37
2018-03-24T18:55:28.202Z,5.32
2018-03-24T18:57:54.843Z,5.31
2018-03-24T19:00:22.116Z,5.30
2018-03-24T19:02:49.062Z,5.39
2018-03-24T19:05:16.106Z,5.29
2018-03-24T19:07:43.532Z,5.25
2018-03-24T19:10:10.379Z,5.35
2018-03-24T19:12:37.303Z,5.41
2018-03-24T19:15:04.826Z,4.84
2018-03-24T19:17:32.080Z,5.19
2018-03-24T19:19:59.604Z,5.40
2018-03-24T19:22:26.879Z,5.44
2018-03-24T19:24:54.163Z,5.54
2018-03-24T19:27:21.209Z,5.57
2018-03-24T19:29:49.001Z,5.57
2018-03-24T19:32:16.733Z,5.54
2018-03-24T19:34:43.327Z,5.50
2018-03-24T19:37:10.565Z,5.19
2018-03-24T19:39:37.927Z,5.42
2018-03-24T19:42:05.003Z,5.20
2018-03-24T19:44:31.872Z,5.25
2018-03-24T19:46:59.121Z,5.46
2018-03-24T19:49:26.510Z,5.38
2018-03-24T19:51:53.155Z,5.51
2018-03-24T19:54:20.023Z,5.64
2018-03-24T19:56:46.754Z,5.55
2018-03-24T19:59:13.456Z,5.65
2018-03-24T20:01:40.049Z,5.71
2018-03-24T20:04:06.965Z,5.60
2018-03-24T20:06:34.013Z,5.26
2018-03-24T20:09:00.771Z,5.45
2018-03-24T20:11:27.809Z,5.18
2018-03-24T20:13:54.902Z,5.13
2018-03-24T20:16:21.412Z,5.16
2018-03-24T20:18:47.998Z,5.22
2018-03-24T20:21:15.086Z,5.31
2018-03-24T20:23:41.649Z,5.38
2018-03-24T20:26:08.233Z,5.28
2018-03-24T20:28:35.304Z,5.24
2018-03-24T20:31:02.758Z,5.31
2018-03-24T20:33:30.276Z,5.43
2018-03-24T20:35:57.181Z,5.42
2018-03-24T20:38:24.600Z,5.43
2018-03-24T20:40:51.219Z,5.45
2018-03-24T20:43:19.087Z,5.46
2018-03-24T20:45:46.497Z,5.41
2018-03-24T20:48:13.730Z,5.35
2018-03-24T20:50:40.270Z,5.40
2018-03-24T20:53:06.975Z,5.29
2018-03-24T20:55:33.703Z,5.28
2018-03-24T20:58:00.763Z,5.03
2018-03-24T21:00:27.308Z,4.75
2018-03-24T21:02:54.955Z,4.98
2018-03-24T21:05:21.815Z,5.24
2018-03-24T21:07:48.309Z,5.24
2018-03-24T21:10:15.057Z,5.25
2018-03-24T21:12:41.553Z,5.28
2018-03-24T21:15:11.306Z,4.50
2018-03-24T21:17:38.388Z,4.78
2018-03-24T21:20:05.282Z,5.23
2018-03-24T21:22:31.882Z,5.20
2018-03-24T21:24:58.454Z,5.01
2018-03-24T21:27:25.311Z,5.28
2018-03-24T21:29:52.323Z,5.35
2018-03-24T21:32:19.110Z,5.35
2018-03-24T21:34:46.061Z,5.32
2018-03-24T21:37:13.277Z,5.36
2018-03-24T21:39:39.886Z,5.38
2018-03-24T21:42:06.459Z,4.56
2018-03-24T21:44:33.114Z,5.12
2018-03-24T21:47:00.151Z,5.32
2018-03-24T21:49:26.928Z,4.86
2018-03-24T21:51:53.573Z,4.30
2018-03-24T21:54:20.254Z,5.07
2018-03-24T21:56:46.781Z,5.01
2018-03-24T21:59:13.600Z,5.17
2018-03-24T22:01:40.130Z,5.18
2018-03-24T22:04:06.963Z,5.06
2018-03-24T22:06:33.833Z,4.89
2018-03-24T22:09:00.237Z,5.05
2018-03-24T22:11:27.197Z,5.16
2018-03-24T22:13:53.848Z,5.01
2018-03-24T22:16:20.534Z,5.13
2018-03-24T22:18:47.208Z,5.22
2018-03-24T22:21:13.824Z,5.36
2018-03-24T22:23:41.047Z,5.31
2018-03-24T22:26:07.498Z,5.32
2018-03-24T22:28:34.250Z,5.26
2018-03-24T22:31:01.218Z,5.22
2018-03-24T22:33:28.399Z,5.12
2018-03-24T22:35:54.835Z,4.91
2018-03-24T22:38:21.459Z,5.12
2018-03-24T22:40:47.981Z,5.02
2018-03-24T22:43:14.419Z,5.15
2018-03-24T22:45:41.063Z,5.10
2018-03-24T22:48:07.462Z,5.17
2018-03-24T22:50:34.187Z,5.32
2018-03-24T22:53:00.842Z,5.43
2018-03-24T22:55:27.346Z,5.37
2018-03-24T22:57:53.741Z,5.13
2018-03-24T23:00:20.911Z,5.34
2018-03-24T23:02:47.939Z,5.39
2018-03-24T23:05:14.504Z,5.40
2018-03-24T23:07:41.135Z,5.23
2018-03-24T23:10:07.686Z,5.19
2018-03-24T23:12:34.107Z,4.51
2018-03-24T23:15:00.615Z,4.71
2018-03-24T23:17:27.067Z,5.05
2018-03-24T23:19:53.932Z,5.24
2018-03-24T23:22:20.848Z,5.32
2018-03-24T23:24:47.458Z,5.50
2018-03-24T23:27:14.115Z,5.42
2018-03-24T23:29:40.947Z,5.51
2018-03-24T23:32:07.585Z,5.53
2018-03-24T23:34:34.448Z,5.54
2018-03-24T23:37:01.016Z,5.59
2018-03-24T23:39:27.793Z,5.45
2018-03-24T23:41:54.490Z,5.42
2018-03-24T23:44:21.130Z,5.31
2018-03-24T23:46:47.865Z,5.31
2018-03-24T23:49:14.525Z,5.35
2018-03-24T23:51:41.213Z,5.31
2018-03-24T23:54:07.946Z,5.50
2018-03-24T23:56:34.429Z,5.55
2018-03-24T23:59:01.202Z,5.50
